Time;durP1;ratioP1;P1;durP2;ratioP2;P2;SDS_P1;SDS_P2;PMS_P1;PMS_P2;Temp;Humidity;BMP_temperature;BMP_pressure;BME280_temperature;BME280_humidity;BME280_pressure;Samples;Min_cycle;Max_cycle;Signal;HPM_P1;HPM_P2
2022/03/22 00:01:06;;;;;;;105.60;45.20;;;;;;;-0.13;49.83;102418.98;105959;1271;24413;-57
2022/03/22 00:03:37;;;;;;;88.20;39.80;;;;;;;-0.14;49.83;102423.44;106026;1271;25516;-57
2022/03/22 00:06:09;;;;;;;88.30;41.80;;;;;;;-0.16;50.00;102424.41;106070;1271;22592;-55
2022/03/22 00:08:42;;;;;;;102.00;43.60;;;;;;;-0.16;50.04;102423.46;106068;1271;22610;-55
2022/03/22 00:11:13;;;;;;;103.60;46.90;;;;;;;-0.19;50.74;102423.52;105979;1271;24331;-58
2022/03/22 00:13:47;;;;;;;104.20;46.10;;;;;;;-0.25;50.94;102422.59;105941;1271;24386;-57
2022/03/22 00:16:18;;;;;;;132.30;53.60;;;;;;;-0.29;50.96;102420.92;105905;1271;22604;-57
2022/03/22 00:18:50;;;;;;;143.30;59.10;;;;;;;-0.33;51.09;102416.36;106131;1271;22550;-57
2022/03/22 00:21:21;;;;;;;160.70;65.20;;;;;;;-0.36;51.21;102421.38;106013;1270;22664;-57
2022/03/22 00:23:52;;;;;;;190.10;73.20;;;;;;;-0.41;51.32;102417.02;106048;1271;25575;-57
2022/03/22 00:26:24;;;;;;;188.80;78.10;;;;;;;-0.47;51.63;102414.64;105913;1271;22664;-57
2022/03/22 00:28:55;;;;;;;176.30;72.30;;;;;;;-0.53;51.84;102417.70;105950;1271;24318;-58
2022/03/22 00:31:26;;;;;;;178.10;72.40;;;;;;;-0.59;51.86;102419.73;105970;1271;22673;-57
2022/03/22 00:33:58;;;;;;;185.80;74.20;;;;;;;-0.62;51.64;102413.91;105897;1271;25472;-57
2022/03/22 00:36:31;;;;;;;167.50;69.30;;;;;;;-0.62;51.58;102408.73;105967;1271;25615;-56
2022/03/22 00:39:03;;;;;;;148.80;61.00;;;;;;;-0.61;51.55;102416.36;106018;1271;25599;-57
2022/03/22 00:41:35;;;;;;;143.40;60.20;;;;;;;-0.62;51.38;102409.62;105895;1271;23298;-57
2022/03/22 00:44:08;;;;;;;123.10;54.40;;;;;;;-0.61;51.50;102411.27;106007;1271;22835;-57
2022/03/22 00:46:40;;;;;;;122.90;53.70;;;;;;;-0.62;51.79;102413.29;105977;1271;24259;-56
2022/03/22 00:49:13;;;;;;;123.80;51.90;;;;;;;-0.65;52.25;102414.24;106018;1271;22745;-58
2022/03/22 00:51:44;;;;;;;109.50;47.90;;;;;;;-0.68;52.25;102416.27;105976;1271;25549;-55
2022/03/22 00:54:16;;;;;;;116.10;47.50;;;;;;;-0.71;52.42;102409.83;105966;1271;22628;-57
2022/03/22 00:56:49;;;;;;;103.20;45.90;;;;;;;-0.73;52.11;102408.13;105869;1271;22662;-57
2022/03/22 01:02:09;;;;;;;100.50;43.70;;;;;;;-0.74;52.09;102405.05;105877;1270;25586;-58
2022/03/22 01:04:44;;;;;;;109.50;45.60;;;;;;;-0.74;52.12;102405.02;105916;1271;22739;-57
2022/03/22 01:07:15;;;;;;;103.30;44.30;;;;;;;-0.75;52.11;102406.30;105981;1270;22599;-57
2022/03/22 01:09:46;;;;;;;102.70;44.00;;;;;;;-0.75;52.47;102408.94;106035;1271;24339;-55
2022/03/22 01:12:18;;;;;;;96.30;44.40;;;;;;;-0.76;52.62;102408.53;105954;1271;22666;-58
2022/03/22 01:14:50;;;;;;;95.20;44.50;;;;;;;-0.78;52.92;102403.53;106063;1271;22594;-57
2022/03/22 01:17:21;;;;;;;102.50;42.70;;;;;;;-0.83;53.22;102398.93;105765;1271;22626;-55
2022/03/22 01:19:53;;;;;;;100.70;43.70;;;;;;;-0.88;53.31;102398.71;106065;1271;22668;-55
2022/03/22 01:22:24;;;;;;;110.70;50.70;;;;;;;-0.91;53.21;102402.53;106046;1271;25578;-58
2022/03/22 01:24:57;;;;;;;110.80;46.60;;;;;;;-0.95;53.35;102404.23;105792;1271;23230;-57
2022/03/22 01:27:29;;;;;;;97.50;43.70;;;;;;;-0.99;53.11;102399.58;106045;1270;25610;-57
2022/03/22 01:30:01;;;;;;;98.90;41.80;;;;;;;-1.01;52.99;102395.54;105795;1271;22735;-58
2022/03/22 01:32:32;;;;;;;100.10;40.80;;;;;;;-1.03;53.43;102392.41;106134;1270;22682;-58
2022/03/22 01:35:05;;;;;;;102.10;41.50;;;;;;;-1.07;53.81;102395.48;106009;1271;22635;-57
2022/03/22 01:37:38;;;;;;;101.40;43.80;;;;;;;-1.15;54.11;102393.80;105853;1271;25775;-57
2022/03/22 01:40:12;;;;;;;94.30;39.40;;;;;;;-1.19;53.87;102394.20;105409;1270;686974;-55
2022/03/22 01:42:45;;;;;;;94.90;41.10;;;;;;;-1.20;53.68;102396.92;105920;1270;25589;-56
2022/03/22 01:45:17;;;;;;;96.90;39.20;;;;;;;-1.19;53.79;102394.75;105947;1270;22658;-54
2022/03/22 01:47:50;;;;;;;88.60;38.80;;;;;;;-1.19;53.56;102386.52;105910;1270;22597;-57
2022/03/22 01:50:23;;;;;;;96.40;39.80;;;;;;;-1.19;53.48;102378.70;105920;1270;25590;-54
2022/03/22 01:52:55;;;;;;;94.40;40.90;;;;;;;-1.20;53.81;102374.91;105945;1270;22709;-54
2022/03/22 01:55:27;;;;;;;100.90;38.80;;;;;;;-1.23;53.64;102376.41;105934;1271;23136;-57
2022/03/22 01:57:58;;;;;;;89.70;40.00;;;;;;;-1.24;54.05;102376.45;105938;1270;22656;-56
2022/03/22 02:00:30;;;;;;;93.80;37.50;;;;;;;-1.27;54.19;102368.52;105872;1270;22673;-55
2022/03/22 02:05:55;;;;;;;92.90;37.30;;;;;;;-1.33;53.94;102363.42;105877;1270;26619;-57
2022/03/22 02:08:29;;;;;;;88.90;36.70;;;;;;;-1.34;53.92;102364.63;105776;1270;24770;-55
2022/03/22 02:11:02;;;;;;;89.90;38.20;;;;;;;-1.37;54.50;102369.87;105805;1270;22588;-54
2022/03/22 02:13:36;;;;;;;97.10;38.20;;;;;;;-1.43;54.48;102369.70;105895;1271;25609;-56
2022/03/22 02:16:09;;;;;;;94.60;39.70;;;;;;;-1.45;54.24;102367.61;105846;1270;22597;-56
2022/03/22 02:18:42;;;;;;;102.00;39.20;;;;;;;-1.46;54.08;102364.66;106006;1270;22627;-56
2022/03/22 02:21:18;;;;;;;89.40;39.60;;;;;;;-1.49;54.71;102361.36;105869;1270;25427;-56
2022/03/22 02:23:52;;;;;;;85.90;37.80;;;;;;;-1.56;54.75;102358.82;105878;1270;22670;-55
2022/03/22 02:26:25;;;;;;;90.10;38.00;;;;;;;-1.59;54.73;102362.70;105816;1270;25482;-57
2022/03/22 02:28:59;;;;;;;99.60;37.90;;;;;;;-1.61;54.74;102363.50;105843;1270;22607;-58
2022/03/22 02:31:32;;;;;;;98.20;40.00;;;;;;;-1.65;54.82;102360.91;105750;1271;25648;-54
2022/03/22 02:34:05;;;;;;;93.50;38.30;;;;;;;-1.67;54.58;102363.02;105994;1270;25643;-57
2022/03/22 02:36:37;;;;;;;92.40;37.60;;;;;;;-1.69;54.80;102365.40;105969;1271;26182;-56
2022/03/22 02:39:09;;;;;;;95.20;35.40;;;;;;;-1.71;54.48;102361.98;105962;1271;24421;-57
2022/03/22 02:41:42;;;;;;;90.00;37.00;;;;;;;-1.72;54.62;102363.82;105930;1270;25666;-57
2022/03/22 02:44:14;;;;;;;87.50;34.70;;;;;;;-1.72;54.81;102362.95;105923;1270;25585;-55
2022/03/22 02:46:46;;;;;;;89.40;35.50;;;;;;;-1.74;54.71;102369.95;106047;1270;22639;-56
2022/03/22 02:49:18;;;;;;;85.70;37.80;;;;;;;-1.75;55.09;102369.13;105925;1270;25714;-58
2022/03/22 02:51:50;;;;;;;86.60;35.30;;;;;;;-1.79;55.28;102370.02;106079;1270;25656;-57
2022/03/22 02:54:42;;;;;;;86.30;36.50;;;;;;;-1.80;54.89;102373.49;106160;1270;24213;-57
2022/03/22 02:57:17;;;;;;;87.70;35.80;;;;;;;-1.80;55.36;102374.27;106060;1271;22696;-56
2022/03/22 02:59:48;;;;;;;87.70;34.50;;;;;;;-1.83;54.90;102376.39;105902;1274;22685;-57
2022/03/22 03:02:20;;;;;;;82.80;32.70;;;;;;;-1.83;55.18;102380.45;105803;1274;25598;-54
2022/03/22 03:04:51;;;;;;;84.60;32.60;;;;;;;-1.84;55.41;102376.17;106050;1274;22876;-57
2022/03/22 03:07:25;;;;;;;84.30;32.40;;;;;;;-1.86;55.62;102378.52;105875;1271;22668;-57
2022/03/22 03:09:57;;;;;;;76.30;31.10;;;;;;;-1.88;55.55;102377.46;106068;1274;22684;-55
2022/03/22 03:12:29;;;;;;;87.90;33.70;;;;;;;-1.89;55.61;102375.56;107893;1272;22860;-57
2022/03/22 03:15:01;;;;;;;74.70;29.80;;;;;;;-1.89;55.22;102377.60;107807;1272;22869;-58
2022/03/22 03:17:33;;;;;;;76.60;32.20;;;;;;;-1.89;55.19;102377.20;105973;1274;24281;-55
2022/03/22 03:20:05;;;;;;;70.90;30.50;;;;;;;-1.88;55.39;102380.98;105842;1274;22714;-57
2022/03/22 03:22:37;;;;;;;66.70;29.10;;;;;;;-1.89;55.35;102382.83;105955;1274;22751;-55
2022/03/22 03:25:10;;;;;;;74.00;30.60;;;;;;;-1.90;55.42;102386.54;105755;1274;25601;-56
2022/03/22 03:27:42;;;;;;;74.50;29.30;;;;;;;-1.93;55.59;102384.42;105946;1274;22688;-57
2022/03/22 03:30:14;;;;;;;74.80;30.40;;;;;;;-1.95;55.52;102387.64;106092;1274;24329;-58
2022/03/22 03:32:45;;;;;;;70.60;28.70;;;;;;;-1.97;55.79;102387.82;106044;1274;23053;-57
2022/03/22 03:35:17;;;;;;;67.40;28.20;;;;;;;-2.01;55.99;102390.20;106229;1274;22639;-56
2022/03/22 03:37:48;;;;;;;68.30;29.90;;;;;;;-2.05;56.04;102387.39;105939;1272;24492;-56
2022/03/22 03:40:19;;;;;;;65.90;28.80;;;;;;;-2.09;55.81;102389.84;105689;1274;22761;-57
2022/03/22 03:42:51;;;;;;;65.20;26.90;;;;;;;-2.10;55.58;102385.35;105653;1274;22614;-56
2022/03/22 03:48:11;;;;;;;;;;;;;;;-2.15;56.09;102384.95;106002;1274;24426;-56
2022/03/22 03:50:42;;;;;;;71.60;28.20;;;;;;;-2.23;56.15;102389.69;106045;1274;22730;-56
2022/03/22 03:53:15;;;;;;;71.50;28.70;;;;;;;-2.26;56.27;102392.38;105854;1274;22694;-57
2022/03/22 03:55:46;;;;;;;73.50;30.70;;;;;;;-2.31;56.30;102391.77;105646;1273;22734;-58
2022/03/22 03:58:18;;;;;;;82.10;33.70;;;;;;;-2.35;56.43;102390.77;106100;1274;22724;-56
2022/03/22 04:00:49;;;;;;;82.80;31.90;;;;;;;-2.39;56.38;102388.84;105695;1273;25319;-56
2022/03/22 04:03:20;;;;;;;73.00;31.40;;;;;;;-2.43;56.68;102391.45;105715;1274;24015;-58
2022/03/22 04:05:52;;;;;;;79.10;32.60;;;;;;;-2.47;56.64;102390.06;105749;1274;22779;-55
2022/03/22 04:08:23;;;;;;;78.60;32.20;;;;;;;-2.49;56.63;102390.69;105684;1274;22703;-58
2022/03/22 04:10:55;;;;;;;72.70;31.10;;;;;;;-2.52;56.55;102393.18;105909;1272;22995;-57
2022/03/22 04:13:27;;;;;;;73.60;31.50;;;;;;;-2.52;56.24;102396.20;105918;1273;25728;-56
2022/03/22 04:16:02;;;;;;;80.30;32.00;;;;;;;-2.52;56.15;102393.92;105691;1274;22620;-57
2022/03/22 04:18:34;;;;;;;77.90;29.40;;;;;;;-2.53;56.09;102400.73;105936;1273;22819;-56
2022/03/22 04:21:07;;;;;;;72.00;29.40;;;;;;;-2.53;56.05;102402.12;106070;1273;22573;-56
2022/03/22 04:23:38;;;;;;;71.50;28.40;;;;;;;-2.53;56.05;102400.58;105932;1274;22796;-56
2022/03/22 04:26:12;;;;;;;76.70;30.30;;;;;;;-2.53;56.13;102402.61;105777;1273;22656;-58
2022/03/22 04:34:21;;;;;;;81.40;33.50;;;;;;;-2.53;56.21;102406.55;105780;1273;25592;-55
2022/03/22 04:36:57;;;;;;;76.10;30.80;;;;;;;-2.54;56.22;102406.77;105799;1273;22556;-59
2022/03/22 04:39:30;;;;;;;72.50;30.00;;;;;;;-2.55;56.45;102406.80;105923;1273;25553;-61
2022/03/22 04:42:02;;;;;;;84.70;32.60;;;;;;;-2.57;56.56;102408.95;106025;1273;22782;-58
2022/03/22 04:44:35;;;;;;;73.80;31.50;;;;;;;-2.57;56.57;102409.95;106014;1273;25609;-57
2022/03/22 04:47:08;;;;;;;71.00;30.80;;;;;;;-2.58;56.72;102414.99;105868;1273;22668;-56
2022/03/22 04:49:40;;;;;;;72.40;29.60;;;;;;;-2.57;56.63;102415.70;105929;1274;22660;-58
2022/03/22 04:57:51;;;;;;;69.60;28.80;;;;;;;-2.56;56.53;102421.13;105860;1273;22638;-62
2022/03/22 05:00:23;;;;;;;74.70;28.70;;;;;;;-2.56;56.67;102422.17;106059;1273;22878;-62
2022/03/22 05:02:54;;;;;;;60.70;26.30;;;;;;;-2.54;56.77;102424.10;106083;1273;25616;-62
2022/03/22 05:08:11;;;;;;;64.10;28.60;;;;;;;-2.55;57.14;102425.58;105713;1273;22795;-61
2022/03/22 05:10:43;;;;;;;80.40;28.40;;;;;;;-2.54;57.08;102418.63;105768;1273;22798;-63
2022/03/22 05:13:14;;;;;;;66.80;27.80;;;;;;;-2.55;57.72;102423.37;105836;1271;22686;-61
2022/03/22 05:15:47;;;;;;;71.40;26.60;;;;;;;-2.58;57.92;102423.40;105968;1271;24275;-63
2022/03/22 05:18:20;;;;;;;77.60;28.40;;;;;;;-2.60;57.78;102421.01;106063;1271;24259;-64
2022/03/22 05:20:51;;;;;;;67.50;26.10;;;;;;;-2.59;57.45;102420.03;105845;1273;22803;-57
2022/03/22 05:23:23;;;;;;;66.10;25.40;;;;;;;-2.57;57.43;102418.40;105799;1273;24923;-58
2022/03/22 05:25:54;;;;;;;57.20;25.30;;;;;;;-2.52;57.60;102416.06;105637;1273;25529;-55
2022/03/22 05:28:26;;;;;;;72.80;28.20;;;;;;;-2.47;57.63;102413.80;105922;1273;24741;-57
2022/03/22 05:30:58;;;;;;;69.60;28.20;;;;;;;-2.42;57.86;102414.82;106006;1273;25637;-58
2022/03/22 05:33:30;;;;;;;67.80;29.30;;;;;;;-2.36;57.76;102418.70;105797;1271;25646;-58
2022/03/22 05:36:01;;;;;;;68.20;28.90;;;;;;;-2.31;57.78;102420.69;105745;1273;22697;-59
2022/03/22 05:38:33;;;;;;;75.60;31.10;;;;;;;-2.26;58.01;102419.06;105706;1273;25699;-57
2022/03/22 05:41:08;;;;;;;79.00;29.70;;;;;;;-2.23;57.97;102420.95;106498;1273;25904;-59
2022/03/22 05:43:41;;;;;;;76.20;30.00;;;;;;;-2.20;57.95;102420.34;105833;1273;25505;-58
2022/03/22 05:46:17;;;;;;;70.80;29.70;;;;;;;-2.17;58.10;102422.56;105712;1273;25601;-58
2022/03/22 05:48:49;;;;;;;76.50;31.40;;;;;;;-2.14;58.02;102421.57;105673;1273;22645;-57
2022/03/22 05:51:20;;;;;;;76.20;31.60;;;;;;;-2.12;58.15;102424.20;107077;1271;23092;-56
2022/03/22 05:53:52;;;;;;;76.60;29.20;;;;;;;-2.11;58.33;102425.29;107786;1272;25616;-58
2022/03/22 05:56:24;;;;;;;67.70;29.70;;;;;;;-2.08;58.59;102426.45;109651;1272;22716;-57
2022/03/22 05:58:58;;;;;;;73.30;27.80;;;;;;;-2.05;58.72;102428.11;109680;1272;22453;-57
2022/03/22 06:01:30;;;;;;;68.10;27.80;;;;;;;-2.02;58.98;102424.23;109705;1272;22582;-60
2022/03/22 06:04:02;;;;;;;60.40;26.20;;;;;;;-1.97;59.28;102426.53;106245;1273;22720;-59
2022/03/22 06:06:33;;;;;;;64.80;26.50;;;;;;;-1.92;59.30;102424.50;106085;1273;22671;-53
2022/03/22 06:09:05;;;;;;;63.50;26.50;;;;;;;-1.85;59.71;102427.05;106072;1273;24212;-55
2022/03/22 06:11:37;;;;;;;65.40;27.80;;;;;;;-1.78;59.59;102428.48;106060;1273;25595;-56
2022/03/22 06:14:08;;;;;;;67.90;26.90;;;;;;;-1.71;59.90;102430.02;105941;1274;22646;-63
2022/03/22 06:16:40;;;;;;;66.20;26.10;;;;;;;-1.65;60.14;102430.07;105898;1273;25592;-57
2022/03/22 06:19:11;;;;;;;68.00;26.00;;;;;;;-1.57;60.08;102437.50;105813;1273;22719;-54
2022/03/22 06:21:43;;;;;;;66.20;28.50;;;;;;;-1.49;60.17;102440.02;105976;1273;22720;-54
2022/03/22 06:24:14;;;;;;;75.20;29.00;;;;;;;-1.41;60.04;102439.52;106105;1273;26006;-56
2022/03/22 06:26:46;;;;;;;63.60;28.20;;;;;;;-1.32;60.12;102442.67;105880;1273;22697;-53
2022/03/22 06:29:17;;;;;;;72.40;29.80;;;;;;;-1.22;60.17;102437.73;105737;1273;23081;-55
2022/03/22 06:31:49;;;;;;;75.70;30.50;;;;;;;-1.12;59.95;102435.91;105677;1273;24303;-56
2022/03/22 06:34:21;;;;;;;73.70;31.20;;;;;;;-1.01;60.03;102437.66;105871;1273;24504;-53
2022/03/22 06:36:52;;;;;;;78.10;30.40;;;;;;;-0.89;59.99;102437.45;105652;1273;22770;-54
2022/03/22 06:39:25;;;;;;;77.50;31.30;;;;;;;-0.77;60.08;102434.44;105846;1273;24285;-56
2022/03/22 06:41:56;;;;;;;76.70;31.30;;;;;;;-0.65;60.10;102433.97;105788;1273;22777;-56
2022/03/22 06:44:28;;;;;;;86.20;32.20;;;;;;;-0.54;60.18;102429.50;106482;1273;25697;-56
2022/03/22 06:47:00;;;;;;;77.30;32.50;;;;;;;-0.42;60.10;102433.14;105791;1273;22644;-57
2022/03/22 06:49:32;;;;;;;77.30;31.50;;;;;;;-0.31;60.10;102431.39;105835;1273;25637;-57
2022/03/22 06:52:04;;;;;;;76.30;31.60;;;;;;;-0.18;60.22;102430.30;105967;1273;26523;-57
2022/03/22 06:54:35;;;;;;;79.40;32.80;;;;;;;-0.04;60.02;102435.84;105899;1273;25746;-57
2022/03/22 06:57:07;;;;;;;78.40;34.10;;;;;;;0.11;59.98;102440.06;105720;1273;22627;-58
2022/03/22 06:59:39;;;;;;;78.00;32.90;;;;;;;0.28;59.73;102441.35;105699;1273;25650;-58
2022/03/22 07:02:11;;;;;;;74.00;32.90;;;;;;;0.45;59.68;102439.08;105838;1273;22854;-54
2022/03/22 07:04:42;;;;;;;80.70;37.60;;;;;;;0.59;59.23;102436.29;105916;1272;22703;-54
2022/03/22 07:07:15;;;;;;;76.90;35.00;;;;;;;0.70;59.05;102438.64;107703;1273;22591;-58
2022/03/22 07:09:48;;;;;;;73.00;32.20;;;;;;;0.86;59.10;102439.84;106056;1273;22837;-55
2022/03/22 07:12:19;;;;;;;78.80;34.40;;;;;;;1.05;59.06;102439.86;106296;1273;22858;-57
2022/03/22 07:14:52;;;;;;;70.30;30.50;;;;;;;1.23;58.87;102440.56;106180;1273;22642;-56
2022/03/22 07:17:24;;;;;;;76.10;36.30;;;;;;;1.41;58.60;102440.86;105994;1272;25827;-56
2022/03/22 07:19:55;;;;;;;77.10;34.70;;;;;;;1.52;58.49;102439.90;105986;1273;22967;-56
2022/03/22 07:22:27;;;;;;;78.30;34.70;;;;;;;1.62;58.24;102440.92;105879;1273;22636;-56
2022/03/22 07:24:59;;;;;;;76.90;35.90;;;;;;;1.71;58.10;102445.60;105661;1273;22750;-55
2022/03/22 07:27:30;;;;;;;72.80;33.20;;;;;;;1.82;58.11;102443.04;105716;1273;22728;-55
2022/03/22 07:30:02;;;;;;;73.60;35.70;;;;;;;1.92;57.99;102446.36;105785;1273;22718;-58
2022/03/22 07:32:33;;;;;;;81.90;37.20;;;;;;;2.05;58.15;102442.26;105766;1273;25525;-53
2022/03/22 07:35:07;;;;;;;72.30;34.50;;;;;;;2.21;57.81;102444.97;105713;1273;25523;-56
2022/03/22 07:37:40;;;;;;;75.90;37.20;;;;;;;2.34;57.66;102445.80;105657;1273;22698;-56
2022/03/22 07:40:13;;;;;;;79.40;36.50;;;;;;;2.46;57.46;102444.42;105641;1273;22540;-56
2022/03/22 07:42:45;;;;;;;85.30;39.40;;;;;;;2.57;57.58;102446.95;105699;1273;22608;-56
2022/03/22 07:45:19;;;;;;;83.30;39.60;;;;;;;2.69;57.41;102445.48;105653;1273;24250;-57
2022/03/22 07:47:51;;;;;;;77.20;37.30;;;;;;;2.79;57.16;102445.14;105591;1273;22709;-56
2022/03/22 07:53:12;;;;;;;82.50;38.30;;;;;;;3.14;56.98;102446.48;105694;1273;25596;-62
2022/03/22 07:55:45;;;;;;;88.00;38.40;;;;;;;3.29;56.93;102448.09;105873;1273;24324;-57
2022/03/22 07:58:17;;;;;;;81.40;37.40;;;;;;;3.51;56.65;102447.23;105849;1272;25440;-60
2022/03/22 08:00:48;;;;;;;78.40;38.40;;;;;;;3.71;56.44;102444.77;105792;1273;22871;-58
2022/03/22 08:03:21;;;;;;;79.90;38.50;;;;;;;3.92;56.33;102441.67;105909;1273;22537;-57
2022/03/22 08:05:53;;;;;;;93.30;43.30;;;;;;;4.11;55.95;102443.35;105919;1273;22549;-57
2022/03/22 08:08:24;;;;;;;84.80;40.40;;;;;;;4.22;55.72;102442.88;105801;1273;26508;-54
2022/03/22 08:10:56;;;;;;;84.00;39.10;;;;;;;4.40;55.42;102438.20;105940;1273;24237;-55
2022/03/22 08:13:27;;;;;;;87.10;41.70;;;;;;;4.58;54.99;102439.36;105827;1273;22690;-55
2022/03/22 08:15:59;;;;;;;79.10;38.90;;;;;;;4.82;54.75;102439.83;105860;1273;24250;-58
2022/03/22 08:18:30;;;;;;;89.40;40.30;;;;;;;5.02;54.31;102441.45;105778;1273;24429;-57
2022/03/22 08:21:01;;;;;;;91.10;41.40;;;;;;;5.10;53.87;102440.05;105669;1273;24303;-55
2022/03/22 08:23:33;;;;;;;88.70;43.50;;;;;;;5.19;53.89;102441.05;106029;1273;22587;-56
2022/03/22 08:26:05;;;;;;;82.50;40.40;;;;;;;5.29;53.66;102438.15;105778;1273;25349;-58
2022/03/22 08:28:37;;;;;;;89.80;43.30;;;;;;;5.37;53.33;102431.45;105962;1273;23781;-57
2022/03/22 08:31:12;;;;;;;85.20;40.40;;;;;;;5.45;53.04;102427.52;105945;1273;24400;-50
2022/03/22 08:33:44;;;;;;;91.50;41.30;;;;;;;5.58;52.69;102428.52;105935;1273;22529;-57
2022/03/22 08:36:15;;;;;;;88.00;44.30;;;;;;;5.75;52.56;102428.94;105835;1273;25296;-55
2022/03/22 08:38:49;;;;;;;86.80;40.30;;;;;;;5.87;52.40;102431.38;105857;1273;25298;-55
2022/03/22 08:41:21;;;;;;;89.90;44.90;;;;;;;6.03;52.33;102430.45;105921;1273;22575;-56
2022/03/22 08:43:53;;;;;;;85.00;41.80;;;;;;;6.10;51.99;102429.50;105886;1273;22536;-55
2022/03/22 08:46:26;;;;;;;84.90;40.10;;;;;;;6.17;51.89;102430.75;105811;1273;22550;-56
2022/03/22 08:48:58;;;;;;;85.00;42.30;;;;;;;6.34;51.52;102428.31;106018;1273;22839;-57
2022/03/22 08:51:30;;;;;;;80.40;39.50;;;;;;;6.44;51.40;102427.65;105882;1273;25368;-53
2022/03/22 08:54:05;;;;;;;82.00;38.50;;;;;;;6.62;50.92;102427.55;105993;1273;22538;-56
2022/03/22 08:56:37;;;;;;;81.60;39.70;;;;;;;6.76;50.77;102425.86;106011;1273;22539;-57
2022/03/22 08:59:09;;;;;;;78.20;39.30;;;;;;;6.86;50.29;102422.52;107259;1261;22620;-55
2022/03/22 09:01:42;;;;;;;74.60;37.10;;;;;;;6.98;50.14;102421.35;106722;1271;26439;-56
2022/03/22 09:07:02;;;;;;;73.80;37.00;;;;;;;7.12;49.57;102415.59;106552;1271;22602;-54
2022/03/22 09:09:33;;;;;;;67.60;34.30;;;;;;;7.22;49.44;102408.64;106535;1271;22542;-56
2022/03/22 09:12:05;;;;;;;69.60;35.80;;;;;;;7.31;49.09;102412.33;106633;1271;22591;-56
2022/03/22 09:14:37;;;;;;;71.40;33.40;;;;;;;7.42;48.72;102412.84;106641;1269;22550;-54
2022/03/22 09:17:09;;;;;;;76.60;35.80;;;;;;;7.65;48.87;102411.10;106640;1271;22531;-57
2022/03/22 09:19:41;;;;;;;71.20;34.40;;;;;;;7.79;48.48;102412.20;106575;1271;22961;-56
2022/03/22 09:22:14;;;;;;;75.00;35.40;;;;;;;7.88;48.20;102408.56;106683;1271;22702;-56
2022/03/22 09:24:46;;;;;;;70.30;32.60;;;;;;;7.99;47.98;102397.91;106612;1271;25365;-55
2022/03/22 09:27:18;;;;;;;67.30;29.20;;;;;;;8.09;47.67;102399.98;106575;1271;22574;-55
2022/03/22 09:29:50;;;;;;;60.50;31.30;;;;;;;8.25;47.14;102393.10;106735;1271;25373;-56
2022/03/22 09:32:21;;;;;;;71.00;32.60;;;;;;;8.50;47.29;102392.32;106550;1271;25943;-57
2022/03/22 09:34:53;;;;;;;63.60;31.40;;;;;;;8.68;46.67;102391.49;106604;1271;22550;-58
2022/03/22 09:37:26;;;;;;;66.90;33.50;;;;;;;8.83;46.56;102390.21;106770;1271;24238;-56
2022/03/22 09:39:59;;;;;;;65.90;31.90;;;;;;;8.95;46.04;102389.11;106778;1271;22707;-55
2022/03/22 09:42:31;;;;;;;61.60;29.80;;;;;;;9.12;45.89;102384.77;106665;1271;25274;-55
2022/03/22 09:45:03;;;;;;;61.00;30.90;;;;;;;9.27;45.31;102385.20;106624;1271;22580;-57
2022/03/22 09:47:36;;;;;;;65.60;30.80;;;;;;;9.44;45.42;102380.91;106703;1271;25888;-57
2022/03/22 09:50:11;;;;;;;58.30;27.40;;;;;;;9.54;45.05;102381.73;106718;1271;22563;-56
2022/03/22 09:52:43;;;;;;;64.10;31.00;;;;;;;9.61;44.63;102379.06;106684;1271;24309;-57
2022/03/22 09:55:16;;;;;;;52.80;26.50;;;;;;;9.67;44.23;102377.05;106655;1271;24597;-54
2022/03/22 09:57:48;;;;;;;54.80;27.40;;;;;;;9.78;43.80;102372.66;106526;1271;22474;-55
2022/03/22 10:00:20;;;;;;;59.40;28.20;;;;;;;9.86;43.76;102373.19;106555;1271;22547;-54
2022/03/22 10:02:52;;;;;;;57.20;28.00;;;;;;;10.05;43.53;102369.92;106497;1271;23110;-58
2022/03/22 10:05:28;;;;;;;58.00;27.40;;;;;;;10.21;43.28;102369.93;106273;1271;25364;-57
2022/03/22 10:08:07;;;;;;;58.20;28.00;;;;;;;10.33;42.76;102363.16;106576;1271;22535;-57
2022/03/22 10:10:55;;;;;;;53.00;25.20;;;;;;;10.40;42.79;102364.38;106521;1271;22586;-59
2022/03/22 10:13:28;;;;;;;54.30;25.80;;;;;;;10.54;42.56;102366.43;106417;1271;24298;-56
2022/03/22 10:16:06;;;;;;;52.20;25.80;;;;;;;10.63;42.25;102363.30;106325;1271;24291;-60
2022/03/22 10:18:39;;;;;;;49.50;24.60;;;;;;;10.69;41.91;102364.23;106353;1271;24198;-58
2022/03/22 10:21:11;;;;;;;50.70;22.60;;;;;;;10.79;41.39;102365.39;106137;1271;25669;-57
2022/03/22 10:23:55;;;;;;;50.00;25.50;;;;;;;10.89;41.04;102368.54;106631;1271;22566;-54
2022/03/22 10:26:36;;;;;;;49.00;25.30;;;;;;;10.98;40.90;102361.08;106557;1271;22603;-55
2022/03/22 10:29:12;;;;;;;49.00;25.50;;;;;;;11.08;40.61;102363.60;106634;1271;25379;-58
2022/03/22 10:31:46;;;;;;;52.90;23.30;;;;;;;11.17;40.25;102360.52;106710;1271;22487;-56
2022/03/22 10:34:18;;;;;;;47.80;22.90;;;;;;;11.24;40.17;102359.65;106639;1271;22678;-57
2022/03/22 10:36:51;;;;;;;51.90;25.20;;;;;;;11.28;39.74;102355.89;106720;1271;22804;-56
2022/03/22 10:39:23;;;;;;;47.50;22.90;;;;;;;11.33;39.58;102354.73;106647;1271;24386;-57
2022/03/22 10:42:04;;;;;;;49.00;22.30;;;;;;;11.46;39.45;102352.84;106732;1271;22626;-55
2022/03/22 10:44:38;;;;;;;41.80;20.80;;;;;;;11.61;39.06;102348.09;106715;1271;22756;-55
2022/03/22 10:47:10;;;;;;;37.80;18.30;;;;;;;11.75;38.54;102344.98;106592;1271;22721;-56
2022/03/22 10:49:42;;;;;;;39.60;19.30;;;;;;;11.86;37.72;102339.27;106643;1271;22548;-54
2022/03/22 10:52:13;;;;;;;42.70;20.50;;;;;;;11.98;37.76;102332.98;106579;1271;24265;-58
2022/03/22 10:54:45;;;;;;;42.70;21.90;;;;;;;12.04;37.49;102337.48;106685;1271;22558;-58
2022/03/22 10:57:21;;;;;;;45.60;23.10;;;;;;;12.09;37.43;102334.30;106743;1271;22527;-54
2022/03/22 10:59:55;;;;;;;43.60;23.20;;;;;;;12.12;36.93;102332.93;106622;1271;25222;-58
2022/03/22 11:02:31;;;;;;;41.30;21.70;;;;;;;12.15;37.01;102331.25;106997;1271;22550;-54
2022/03/22 11:05:05;;;;;;;50.10;22.10;;;;;;;12.20;36.64;102330.25;106657;1271;22872;-54
2022/03/22 11:07:39;;;;;;;42.10;19.30;;;;;;;12.27;36.39;102326.00;106777;1271;22945;-54
2022/03/22 11:10:11;;;;;;;43.20;21.40;;;;;;;12.37;36.24;102324.20;106645;1271;24242;-57
2022/03/22 11:12:42;;;;;;;39.70;19.90;;;;;;;12.48;36.09;102321.56;106716;1271;22601;-56
2022/03/22 11:15:16;;;;;;;43.10;18.50;;;;;;;12.56;35.38;102314.54;106554;1271;22540;-56
2022/03/22 11:17:51;;;;;;;40.60;19.20;;;;;;;12.63;35.02;102310.73;106617;1271;22560;-60
2022/03/22 11:20:27;;;;;;;36.80;17.90;;;;;;;12.78;35.25;102309.00;106668;1271;22538;-54
2022/03/22 11:23:00;;;;;;;36.10;18.20;;;;;;;12.86;34.97;102304.71;106652;1271;22549;-55
2022/03/22 11:25:35;;;;;;;34.40;15.60;;;;;;;12.89;34.58;102304.86;106607;1271;26697;-57
2022/03/22 11:28:09;;;;;;;33.90;15.90;;;;;;;12.93;34.44;102304.48;106729;1271;26558;-55
2022/03/22 11:30:42;;;;;;;34.30;16.10;;;;;;;12.97;34.25;102297.40;106784;1271;25374;-54
2022/03/22 11:36:17;;;;;;;31.70;12.50;;;;;;;13.08;33.24;102290.06;106598;1271;25263;-57
2022/03/22 11:38:52;;;;;;;27.60;10.90;;;;;;;13.16;33.20;102286.13;106795;1271;25379;-57
2022/03/22 11:44:17;;;;;;;29.70;12.90;;;;;;;13.30;32.52;102282.00;106498;1271;22595;-57
2022/03/22 11:47:01;;;;;;;30.30;13.10;;;;;;;13.37;32.42;102277.11;106636;1271;25844;-58
2022/03/22 11:49:47;;;;;;;29.30;12.30;;;;;;;13.40;32.05;102274.30;106528;1271;22814;-57
2022/03/22 11:52:19;;;;;;;28.30;11.90;;;;;;;13.43;32.15;102270.34;106690;1271;22502;-55
2022/03/22 11:55:00;;;;;;;26.00;11.90;;;;;;;13.47;32.07;102266.27;106658;1271;26439;-55
2022/03/22 11:57:40;;;;;;;;;;;;;;;13.56;31.92;102262.30;106567;1271;25175;-55
2022/03/22 12:00:14;;;;;;;24.50;10.80;;;;;;;13.66;31.49;102263.65;106739;1271;25398;-56